createdAt,value
2022-12-31T00:02:46.643Z,98.50
2022-12-31T00:05:48.790Z,100.63
2022-12-31T00:08:56.872Z,103.97
2022-12-31T00:11:59.068Z,102.47
2022-12-31T00:15:01.288Z,103.70
2022-12-31T00:18:03.738Z,105.33
2022-12-31T00:21:07.252Z,98.93
2022-12-31T00:24:11.107Z,104.38
2022-12-31T00:27:13.396Z,104.85
2022-12-31T00:30:16.136Z,114.50
2022-12-31T00:33:18.382Z,106.53
2022-12-31T00:36:22.019Z,111.10
2022-12-31T00:39:24.620Z,95.13
2022-12-31T00:42:26.781Z,88.03
2022-12-31T00:45:29.005Z,93.97
2022-12-31T00:48:31.843Z,97.95
2022-12-31T00:51:33.981Z,106.22
2022-12-31T00:54:36.124Z,101.00
2022-12-31T00:57:38.323Z,103.20
2022-12-31T01:00:41.828Z,102.40
2022-12-31T01:03:44.051Z,96.13
2022-12-31T01:06:46.536Z,108.60
2022-12-31T01:09:48.693Z,103.97
2022-12-31T01:12:50.876Z,112.55
2022-12-31T01:15:53.091Z,111.22
2022-12-31T01:18:55.297Z,102.77
2022-12-31T01:21:57.648Z,98.07
2022-12-31T01:24:59.877Z,102.68
2022-12-31T01:28:02.380Z,101.88
2022-12-31T01:31:05.401Z,104.20
2022-12-31T01:34:08.097Z,101.80
2022-12-31T01:37:10.271Z,105.57
2022-12-31T01:40:12.513Z,104.43
2022-12-31T01:43:21.013Z,111.60
2022-12-31T01:46:29.078Z,105.83
2022-12-31T01:49:40.427Z,97.35
2022-12-31T01:52:45.225Z,94.93
2022-12-31T01:55:52.199Z,98.55
2022-12-31T01:58:56.048Z,94.67
2022-12-31T02:01:58.951Z,88.55
2022-12-31T02:05:02.633Z,81.20
2022-12-31T02:08:06.175Z,89.43
2022-12-31T02:11:20.718Z,88.33
2022-12-31T02:14:43.068Z,85.45
2022-12-31T02:17:52.141Z,75.50
2022-12-31T02:21:04.216Z,86.80
2022-12-31T02:24:15.542Z,80.63
2022-12-31T02:27:36.568Z,81.40
2022-12-31T02:30:40.268Z,91.43
2022-12-31T02:33:49.592Z,83.70
2022-12-31T02:36:52.584Z,78.93
2022-12-31T02:39:55.216Z,80.57
2022-12-31T02:42:57.406Z,80.97
2022-12-31T02:46:18.432Z,76.38
2022-12-31T02:49:23.817Z,75.80
2022-12-31T02:52:40.868Z,81.72
2022-12-31T02:55:48.956Z,75.95
2022-12-31T02:59:19.005Z,80.20
2022-12-31T03:02:23.073Z,80.20
2022-12-31T03:05:26.967Z,79.43
2022-12-31T03:08:29.101Z,79.15
2022-12-31T03:11:49.918Z,85.95
2022-12-31T03:14:52.238Z,88.17
2022-12-31T03:18:07.788Z,93.07
2022-12-31T03:21:30.863Z,90.40
2022-12-31T03:24:51.603Z,101.60
2022-12-31T03:27:54.092Z,93.17
2022-12-31T03:30:57.652Z,137.88
2022-12-31T03:33:59.745Z,125.93
2022-12-31T03:37:01.866Z,136.43
2022-12-31T03:40:04.382Z,159.87
2022-12-31T03:43:06.866Z,151.10
2022-12-31T03:46:10.642Z,159.88
2022-12-31T03:49:12.828Z,200.20
2022-12-31T03:52:15.097Z,229.07
2022-12-31T03:55:17.913Z,169.43
2022-12-31T03:58:20.211Z,203.00
2022-12-31T04:01:24.496Z,162.07
2022-12-31T04:04:26.964Z,179.47
2022-12-31T04:07:29.014Z,177.52
2022-12-31T04:10:31.547Z,244.35
2022-12-31T04:13:34.348Z,172.65
2022-12-31T04:16:36.628Z,191.00
2022-12-31T04:19:38.950Z,260.75
2022-12-31T04:22:41.109Z,361.38
2022-12-31T04:25:43.347Z,243.25
2022-12-31T04:28:46.450Z,255.33
2022-12-31T04:31:48.674Z,230.93
2022-12-31T04:34:50.850Z,262.10
2022-12-31T04:37:53.105Z,295.10
2022-12-31T04:41:14.211Z,259.77
2022-12-31T04:44:16.726Z,188.00
2022-12-31T04:47:23.634Z,113.13
2022-12-31T04:50:26.441Z,259.33
2022-12-31T04:53:29.471Z,204.40
2022-12-31T04:56:32.283Z,227.53
2022-12-31T04:59:34.644Z,191.38
2022-12-31T05:02:37.029Z,147.13
2022-12-31T05:05:39.844Z,155.35
2022-12-31T05:08:42.307Z,280.40
2022-12-31T05:11:44.563Z,213.50
2022-12-31T05:14:46.772Z,164.23
2022-12-31T05:17:48.929Z,159.85
2022-12-31T05:20:51.183Z,147.20
2022-12-31T05:23:53.383Z,141.55
2022-12-31T05:26:55.525Z,127.60
2022-12-31T05:29:57.642Z,133.23
2022-12-31T05:32:59.829Z,190.70
2022-12-31T05:36:02.174Z,130.52
2022-12-31T05:39:04.390Z,109.90
2022-12-31T05:42:06.573Z,107.40
2022-12-31T05:45:09.478Z,134.17
2022-12-31T05:48:11.792Z,104.57
2022-12-31T05:51:14.087Z,89.78
2022-12-31T05:54:16.258Z,96.50
2022-12-31T05:57:18.425Z,110.10
2022-12-31T06:00:20.621Z,105.82
2022-12-31T06:03:22.819Z,98.55
2022-12-31T06:06:25.238Z,125.75
2022-12-31T06:09:27.427Z,117.40
2022-12-31T06:12:29.580Z,99.88
2022-12-31T06:15:32.233Z,90.07
2022-12-31T06:18:34.911Z,86.43
2022-12-31T06:21:38.965Z,69.00
2022-12-31T06:24:42.303Z,61.92
2022-12-31T06:27:44.393Z,61.28
2022-12-31T06:30:46.668Z,58.13
2022-12-31T06:33:48.845Z,63.72
2022-12-31T06:36:51.113Z,72.00
2022-12-31T06:39:53.216Z,71.72
2022-12-31T06:42:59.878Z,73.55
2022-12-31T06:46:03.655Z,91.33
2022-12-31T06:49:05.823Z,85.05
2022-12-31T06:52:08.392Z,87.03
2022-12-31T06:55:10.745Z,86.22
2022-12-31T06:58:13.704Z,122.87
2022-12-31T07:01:30.880Z,106.90
2022-12-31T07:04:33.141Z,137.95
2022-12-31T07:07:43.494Z,118.40
2022-12-31T07:10:55.729Z,137.00
2022-12-31T07:14:16.910Z,144.40
2022-12-31T07:17:25.236Z,141.30
2022-12-31T07:20:27.562Z,136.82
2022-12-31T07:23:29.769Z,156.97
2022-12-31T07:26:41.068Z,136.25
2022-12-31T07:29:43.215Z,139.40
2022-12-31T07:33:14.540Z,90.85
2022-12-31T07:36:24.029Z,104.70
2022-12-31T07:39:35.609Z,78.93
2022-12-31T07:42:56.565Z,87.47
2022-12-31T07:46:13.578Z,75.13
2022-12-31T07:49:16.043Z,72.47
2022-12-31T07:52:18.981Z,66.75
2022-12-31T07:55:22.296Z,68.75
2022-12-31T07:58:36.941Z,63.03
2022-12-31T08:01:48.417Z,68.90
2022-12-31T08:04:52.731Z,68.15
2022-12-31T08:08:11.228Z,98.20
2022-12-31T08:11:30.628Z,80.78
2022-12-31T08:14:36.097Z,105.87
2022-12-31T08:17:38.359Z,116.65
2022-12-31T08:21:06.618Z,76.13
2022-12-31T08:24:11.932Z,80.57
2022-12-31T08:27:20.143Z,67.60
2022-12-31T08:30:23.764Z,75.72
2022-12-31T08:33:46.156Z,78.95
2022-12-31T08:36:52.433Z,78.10
2022-12-31T08:40:16.788Z,84.03
2022-12-31T08:43:45.412Z,84.32
2022-12-31T08:46:47.533Z,84.43
2022-12-31T08:49:49.821Z,98.83
2022-12-31T08:52:52.269Z,87.15
2022-12-31T08:56:00.724Z,90.60
2022-12-31T08:59:20.971Z,82.60
2022-12-31T09:02:40.916Z,74.83
2022-12-31T09:05:50.979Z,73.03
2022-12-31T09:08:56.234Z,75.50
2022-12-31T09:12:09.458Z,73.70
2022-12-31T09:15:15.603Z,67.55
2022-12-31T09:18:18.269Z,63.50
2022-12-31T09:21:20.777Z,67.25
2022-12-31T09:24:23.193Z,53.45
2022-12-31T09:27:28.793Z,46.35
2022-12-31T09:30:37.196Z,44.17
2022-12-31T09:33:52.372Z,42.63
2022-12-31T09:36:59.332Z,45.15
2022-12-31T09:40:10.528Z,41.70
2022-12-31T09:43:21.973Z,37.80
2022-12-31T09:46:30.817Z,40.70
2022-12-31T09:49:42.542Z,43.33
2022-12-31T09:52:53.593Z,42.17
2022-12-31T09:55:57.821Z,39.25
2022-12-31T09:59:05.938Z,41.95
2022-12-31T10:02:28.119Z,52.90
2022-12-31T10:05:39.325Z,67.85
2022-12-31T10:08:57.032Z,88.30
2022-12-31T10:12:11.409Z,51.85
2022-12-31T10:15:17.795Z,46.90
2022-12-31T10:18:19.899Z,47.05
2022-12-31T10:21:32.622Z,52.75
2022-12-31T10:24:34.932Z,48.80
2022-12-31T10:27:37.048Z,48.53
2022-12-31T10:30:44.024Z,49.63
2022-12-31T10:33:54.925Z,50.67
2022-12-31T10:37:03.329Z,55.08
2022-12-31T10:40:17.965Z,52.47
2022-12-31T10:43:32.468Z,52.13
2022-12-31T10:46:41.311Z,52.75
2022-12-31T10:50:01.820Z,57.60
2022-12-31T10:53:23.795Z,53.35
2022-12-31T10:56:26.251Z,54.70
2022-12-31T10:59:31.525Z,61.60
2022-12-31T11:02:40.346Z,63.05
2022-12-31T11:05:51.692Z,58.80
2022-12-31T11:09:12.455Z,67.18
2022-12-31T11:12:14.624Z,60.15
2022-12-31T11:15:16.771Z,57.03
2022-12-31T11:18:45.261Z,59.38
2022-12-31T11:21:53.578Z,52.55
2022-12-31T11:25:04.730Z,52.75
2022-12-31T11:28:12.966Z,55.23
2022-12-31T11:31:15.113Z,53.60
2022-12-31T11:34:17.351Z,54.50
2022-12-31T11:37:34.944Z,51.47
2022-12-31T11:40:42.097Z,55.03
2022-12-31T11:43:48.488Z,54.10
2022-12-31T11:47:09.765Z,45.77
2022-12-31T11:50:21.212Z,60.67
2022-12-31T11:53:30.972Z,66.40
2022-12-31T11:56:40.342Z,59.15
2022-12-31T11:59:42.518Z,62.10
2022-12-31T12:02:53.288Z,62.38
2022-12-31T12:05:57.135Z,73.00
2022-12-31T12:09:07.592Z,66.50
2022-12-31T12:12:09.964Z,77.33
2022-12-31T12:15:16.898Z,75.30
2022-12-31T12:18:25.339Z,69.55
2022-12-31T12:21:28.578Z,60.40
2022-12-31T12:24:31.060Z,66.90
2022-12-31T12:27:34.727Z,69.63
2022-12-31T12:30:38.243Z,75.47
2022-12-31T12:33:42.133Z,65.07
2022-12-31T12:36:47.967Z,57.25
2022-12-31T12:39:58.017Z,54.10
2022-12-31T12:43:01.584Z,60.15
2022-12-31T12:46:18.203Z,56.42
2022-12-31T12:49:27.819Z,53.65
2022-12-31T12:52:53.764Z,57.97
2022-12-31T12:56:04.701Z,59.07
2022-12-31T12:59:25.349Z,67.50
2022-12-31T13:02:27.767Z,72.95
2022-12-31T13:05:55.832Z,70.80
2022-12-31T13:09:07.283Z,67.90
2022-12-31T13:12:15.294Z,74.10
2022-12-31T13:15:20.709Z,75.47
2022-12-31T13:18:35.330Z,78.75
2022-12-31T13:21:44.801Z,85.75
2022-12-31T13:24:47.097Z,89.23
2022-12-31T13:27:50.804Z,83.15
2022-12-31T13:31:01.730Z,86.07
2022-12-31T13:34:16.302Z,84.22
2022-12-31T13:37:31.823Z,83.73
2022-12-31T13:40:54.346Z,89.03
2022-12-31T13:44:08.886Z,90.35
2022-12-31T13:47:29.550Z,92.18
2022-12-31T13:50:36.385Z,86.53
2022-12-31T13:53:42.303Z,75.03
2022-12-31T13:56:45.767Z,92.75
2022-12-31T13:59:50.183Z,90.25
2022-12-31T14:02:55.072Z,85.45
2022-12-31T14:06:00.148Z,85.07
2022-12-31T14:09:02.949Z,89.03
2022-12-31T14:12:08.375Z,80.07
2022-12-31T14:15:19.662Z,85.00
2022-12-31T14:18:33.104Z,84.30
2022-12-31T14:21:47.416Z,82.20
2022-12-31T14:24:51.200Z,76.87
2022-12-31T14:27:54.353Z,72.43
2022-12-31T14:31:24.097Z,75.30
2022-12-31T14:34:45.099Z,81.22
2022-12-31T14:37:47.226Z,89.03
2022-12-31T14:40:56.864Z,90.00
2022-12-31T14:44:00.320Z,83.32
2022-12-31T14:47:10.555Z,91.35
2022-12-31T14:50:14.148Z,95.93
2022-12-31T14:53:23.159Z,90.83
2022-12-31T14:56:40.243Z,113.35
2022-12-31T14:59:51.290Z,111.70
2022-12-31T15:02:55.126Z,115.18
2022-12-31T15:05:58.528Z,115.90
2022-12-31T15:09:08.437Z,107.78
2022-12-31T15:12:18.735Z,110.00
2022-12-31T15:15:33.635Z,112.63
2022-12-31T15:18:42.908Z,102.10
2022-12-31T15:21:54.195Z,103.35
2022-12-31T15:24:56.404Z,119.80
2022-12-31T15:27:59.538Z,108.25
2022-12-31T15:31:09.914Z,103.85
2022-12-31T15:34:24.885Z,102.77
2022-12-31T15:37:45.167Z,109.90
2022-12-31T15:40:51.693Z,263.38
2022-12-31T15:44:16.795Z,160.32
2022-12-31T15:47:25.022Z,133.70
2022-12-31T15:50:27.844Z,157.05
2022-12-31T15:53:39.553Z,144.05
2022-12-31T15:56:49.078Z,126.53
2022-12-31T15:59:57.546Z,119.43
2022-12-31T16:02:59.828Z,124.65
2022-12-31T16:06:03.258Z,132.95
2022-12-31T16:09:09.404Z,126.15
2022-12-31T16:12:27.850Z,151.77
2022-12-31T16:15:34.947Z,132.95
2022-12-31T16:18:41.434Z,118.80
2022-12-31T16:21:46.791Z,124.63
2022-12-31T16:25:28.905Z,115.23
2022-12-31T16:28:19.920Z,113.28
2022-12-31T16:31:22.291Z,105.75
2022-12-31T16:34:26.015Z,104.50
2022-12-31T16:37:28.201Z,106.07
2022-12-31T16:40:30.618Z,110.60
2022-12-31T16:43:36.052Z,108.05
2022-12-31T16:46:38.436Z,103.57
2022-12-31T16:49:41.454Z,105.17
2022-12-31T16:52:44.922Z,102.95
2022-12-31T16:56:08.788Z,101.10
2022-12-31T16:59:13.680Z,84.93
2022-12-31T17:02:21.317Z,86.20
2022-12-31T17:05:25.211Z,87.38
2022-12-31T17:08:50.698Z,85.88
2022-12-31T17:11:54.233Z,85.95
2022-12-31T17:15:01.135Z,88.00
2022-12-31T17:18:03.442Z,81.90
2022-12-31T17:21:07.823Z,90.90
2022-12-31T17:24:12.323Z,91.22
2022-12-31T17:27:14.802Z,91.90
2022-12-31T17:30:40.113Z,104.90
2022-12-31T17:33:42.641Z,112.25
2022-12-31T17:37:02.283Z,127.05
2022-12-31T17:40:41.098Z,164.17
2022-12-31T17:43:33.066Z,160.93
2022-12-31T17:46:39.670Z,151.50
2022-12-31T17:49:44.792Z,162.90
2022-12-31T17:52:47.629Z,179.27
2022-12-31T17:55:51.846Z,211.13
2022-12-31T17:58:54.592Z,204.88
2022-12-31T18:02:03.514Z,170.32
2022-12-31T18:05:13.685Z,147.30
2022-12-31T18:08:15.872Z,129.37
2022-12-31T18:11:19.815Z,134.77
2022-12-31T18:14:21.964Z,130.93
2022-12-31T18:17:24.091Z,118.93
2022-12-31T18:20:26.597Z,135.37
2022-12-31T18:23:31.179Z,176.05
2022-12-31T18:26:34.642Z,179.93
2022-12-31T18:29:36.848Z,169.73
2022-12-31T18:32:39.344Z,149.55
2022-12-31T18:36:17.053Z,164.98
2022-12-31T18:39:05.500Z,166.80
2022-12-31T18:42:10.929Z,163.00
2022-12-31T18:45:15.047Z,162.73
2022-12-31T18:48:17.868Z,168.40
2022-12-31T18:51:26.437Z,215.65
2022-12-31T18:54:33.449Z,210.87
2022-12-31T18:57:35.541Z,207.95
2022-12-31T19:00:38.166Z,178.63
2022-12-31T19:03:40.708Z,177.98
2022-12-31T19:06:42.949Z,280.87
2022-12-31T19:09:46.275Z,822.35
2022-12-31T19:12:49.444Z,387.35
2022-12-31T19:15:52.232Z,229.90
2022-12-31T19:18:54.369Z,200.77
2022-12-31T19:21:56.565Z,219.83
2022-12-31T19:24:58.948Z,205.07
2022-12-31T19:28:02.213Z,159.65
2022-12-31T19:31:04.436Z,170.23
2022-12-31T19:34:06.684Z,217.38
2022-12-31T19:37:12.372Z,204.48
2022-12-31T19:40:17.111Z,279.13
2022-12-31T19:43:20.656Z,293.77
2022-12-31T19:46:24.675Z,296.92
2022-12-31T19:49:26.846Z,290.17
2022-12-31T19:52:28.975Z,287.85
2022-12-31T19:55:32.743Z,266.15
2022-12-31T19:58:34.844Z,242.70
2022-12-31T20:01:37.333Z,224.85
2022-12-31T20:04:39.659Z,182.10
2022-12-31T20:07:42.482Z,213.87
2022-12-31T20:10:46.029Z,258.77
2022-12-31T20:13:48.985Z,227.93
2022-12-31T20:16:52.691Z,158.88
2022-12-31T20:19:55.395Z,161.97
2022-12-31T20:22:57.771Z,201.13
2022-12-31T20:26:00.203Z,213.38
2022-12-31T20:29:02.643Z,182.93
2022-12-31T20:32:04.899Z,244.13
2022-12-31T20:35:07.477Z,212.40
2022-12-31T20:38:09.641Z,213.93
2022-12-31T20:41:13.405Z,209.75
2022-12-31T20:44:15.517Z,169.93
2022-12-31T20:47:17.621Z,194.48
2022-12-31T20:50:20.005Z,152.25
2022-12-31T20:53:22.202Z,131.55
2022-12-31T20:56:26.102Z,150.60
2022-12-31T20:59:28.383Z,121.05
2022-12-31T21:02:41.319Z,106.97
2022-12-31T21:05:48.510Z,164.98
2022-12-31T21:08:51.020Z,148.52
2022-12-31T21:12:11.943Z,168.65
2022-12-31T21:15:14.328Z,163.80
2022-12-31T21:18:16.485Z,157.27
2022-12-31T21:21:18.925Z,136.43
2022-12-31T21:24:24.131Z,175.05
2022-12-31T21:27:26.761Z,152.93
2022-12-31T21:30:29.393Z,119.67
2022-12-31T21:33:31.568Z,97.40
2022-12-31T21:36:34.047Z,103.20
2022-12-31T21:39:36.158Z,140.95
2022-12-31T21:42:38.320Z,127.37
2022-12-31T21:45:40.672Z,142.95
2022-12-31T21:48:42.887Z,117.43
2022-12-31T21:52:03.609Z,120.93
2022-12-31T21:55:25.006Z,137.93
2022-12-31T21:58:28.291Z,107.50
2022-12-31T22:01:49.822Z,140.75
2022-12-31T22:05:16.380Z,121.95
2022-12-31T22:08:14.467Z,151.17
2022-12-31T22:11:17.478Z,184.60
2022-12-31T22:14:19.704Z,185.48
2022-12-31T22:17:21.926Z,200.38
2022-12-31T22:20:28.106Z,204.23
2022-12-31T22:23:32.008Z,203.40
2022-12-31T22:26:34.360Z,202.38
2022-12-31T22:29:36.511Z,188.53
2022-12-31T22:32:38.739Z,203.38
2022-12-31T22:35:41.006Z,203.73
2022-12-31T22:38:43.769Z,274.77
2022-12-31T22:41:46.566Z,334.80
2022-12-31T22:44:48.676Z,385.65
2022-12-31T22:47:51.291Z,363.30
2022-12-31T22:50:59.245Z,331.33
2022-12-31T22:54:01.422Z,199.27
2022-12-31T22:57:03.654Z,192.52
2022-12-31T23:00:11.038Z,188.18
2022-12-31T23:03:14.149Z,185.87
2022-12-31T23:06:16.826Z,182.35
2022-12-31T23:09:38.216Z,170.38
2022-12-31T23:12:40.466Z,183.85
2022-12-31T23:16:03.125Z,314.83
2022-12-31T23:19:24.648Z,221.32
2022-12-31T23:22:45.449Z,228.90
2022-12-31T23:25:48.879Z,255.90
2022-12-31T23:28:50.975Z,210.03
2022-12-31T23:31:53.530Z,191.32
2022-12-31T23:34:55.928Z,237.20
2022-12-31T23:37:58.136Z,260.88
2022-12-31T23:41:00.435Z,245.93
2022-12-31T23:44:02.516Z,188.25
2022-12-31T23:47:04.658Z,171.60
2022-12-31T23:50:07.609Z,174.48
2022-12-31T23:53:10.037Z,212.87
2022-12-31T23:56:20.905Z,308.20
2022-12-31T23:59:25.177Z,262.85
